createdAt,value
2016-11-19T00:03:52.791Z,36.4
2016-11-19T00:08:57.243Z,36.3
2016-11-19T00:14:01.338Z,36.4
2016-11-19T00:19:05.426Z,36.3
2016-11-19T00:24:09.852Z,36.4
2016-11-19T00:29:13.943Z,36.4
2016-11-19T00:34:18.033Z,36.4
2016-11-19T00:39:22.116Z,36.4
2016-11-19T00:44:26.205Z,36.4
2016-11-19T00:49:30.634Z,36.4
2016-11-19T00:54:34.723Z,36.4
2016-11-19T00:59:38.814Z,36.4
2016-11-19T01:04:43.235Z,36.4
2016-11-19T01:09:47.999Z,36.4
2016-11-19T01:14:52.090Z,36.3
2016-11-19T01:19:56.179Z,36.3
2016-11-19T01:25:00.268Z,36.4
2016-11-19T01:30:05.032Z,36.4
2016-11-19T01:35:09.116Z,36.4
2016-11-19T01:40:13.880Z,36.4
2016-11-19T01:45:17.965Z,36.4
2016-11-19T01:50:22.057Z,36.4
2016-11-19T01:55:26.151Z,36.4
2016-11-19T02:00:30.567Z,36.3
2016-11-19T02:05:34.651Z,36.4
2016-11-19T02:10:38.735Z,36.4
2016-11-19T02:15:42.825Z,36.4
2016-11-19T02:20:46.919Z,36.4
2016-11-19T02:25:51.010Z,36.3
2016-11-19T02:30:55.427Z,36.3
2016-11-19T02:35:59.509Z,36.3
2016-11-19T02:41:03.933Z,36.4
2016-11-19T02:46:08.020Z,36.3
2016-11-19T02:51:12.436Z,36.3
2016-11-19T02:56:16.524Z,36.3
2016-11-19T03:01:20.940Z,36.3
2016-11-19T03:06:25.701Z,36.3
2016-11-19T03:11:30.114Z,36.3
2016-11-19T03:16:34.195Z,36.4
2016-11-19T03:21:38.954Z,36.4
2016-11-19T03:26:43.366Z,36.5
2016-11-19T03:31:47.453Z,36.5
2016-11-19T03:36:51.544Z,36.5
2016-11-19T03:41:55.960Z,36.5
2016-11-19T03:47:00.045Z,36.5
2016-11-19T03:52:04.459Z,36.4
2016-11-19T03:57:08.875Z,36.4
2016-11-19T04:02:12.956Z,36.3
2016-11-19T04:07:17.051Z,36.3
2016-11-19T04:12:21.132Z,36.2
2016-11-19T04:17:25.550Z,36.2
2016-11-19T04:22:29.644Z,36.2
2016-11-19T04:27:33.717Z,36.1
2016-11-19T04:32:38.140Z,36.1
2016-11-19T04:37:42.558Z,36.1
2016-11-19T04:42:46.981Z,36.1
2016-11-19T04:47:51.072Z,36
2016-11-19T04:52:55.491Z,36
2016-11-19T04:57:59.912Z,36
2016-11-19T05:03:03.999Z,35.9
2016-11-19T05:08:08.437Z,35.9
2016-11-19T05:13:12.868Z,35.9
2016-11-19T05:18:17.293Z,35.9
2016-11-19T05:23:21.719Z,35.9
2016-11-19T05:28:25.805Z,35.9
2016-11-19T05:33:30.227Z,35.9
2016-11-19T05:38:34.317Z,35.9
2016-11-19T05:43:38.745Z,35.9
2016-11-19T05:48:42.830Z,36
2016-11-19T05:53:46.916Z,36
2016-11-19T05:58:51.004Z,36
2016-11-19T06:03:55.094Z,36
2016-11-19T06:08:59.186Z,36
2016-11-19T06:14:03.266Z,36
2016-11-19T06:19:08.021Z,36
2016-11-19T06:24:12.118Z,36
2016-11-19T06:29:16.207Z,36
2016-11-19T06:34:20.291Z,35.9
2016-11-19T06:39:24.709Z,35.9
2016-11-19T06:44:28.815Z,35.9
2016-11-19T06:49:33.223Z,35.8
2016-11-19T06:54:37.307Z,35.8
2016-11-19T06:59:41.739Z,35.8
2016-11-19T07:04:46.163Z,35.9
2016-11-19T07:09:50.247Z,35.9
2016-11-19T07:14:54.331Z,35.9
2016-11-19T07:19:58.427Z,35.9
2016-11-19T07:25:02.843Z,35.9
2016-11-19T07:30:07.262Z,35.9
2016-11-19T07:35:11.699Z,35.9
2016-11-19T07:40:15.777Z,35.9
2016-11-19T07:45:20.536Z,35.9
2016-11-19T07:50:24.622Z,35.8
2016-11-19T07:55:29.377Z,35.8
2016-11-19T08:00:33.472Z,35.8
2016-11-19T08:05:37.554Z,35.8
2016-11-19T08:10:41.643Z,35.8
2016-11-19T08:15:46.074Z,35.7
2016-11-19T08:20:50.163Z,35.8
2016-11-19T08:25:54.250Z,36
2016-11-19T08:30:58.676Z,36
2016-11-19T08:36:02.764Z,36.4
2016-11-19T08:41:07.226Z,37
2016-11-19T08:46:11.327Z,37.4
2016-11-19T08:51:15.409Z,37.6
2016-11-19T08:56:19.515Z,37.7
2016-11-19T09:01:23.987Z,37.7
2016-11-19T09:06:28.084Z,37.6
2016-11-19T09:11:32.510Z,37.5
2016-11-19T09:16:36.603Z,37.4
2016-11-19T09:21:40.707Z,37.2
2016-11-19T09:26:45.804Z,37.6
2016-11-19T09:31:49.892Z,37.9
2016-11-19T09:36:53.981Z,38.1
2016-11-19T09:41:58.076Z,38.1
2016-11-19T09:47:02.175Z,38
2016-11-19T09:52:06.599Z,37.9
2016-11-19T09:57:11.047Z,37.8
2016-11-19T10:02:15.492Z,37.6
2016-11-19T10:07:19.932Z,37.6
2016-11-19T10:12:24.360Z,37.6
2016-11-19T10:17:28.562Z,37.4
2016-11-19T10:22:33.006Z,37.6
2016-11-19T10:27:37.436Z,37.2
2016-11-19T10:32:41.536Z,36.7
2016-11-19T10:37:45.975Z,36.2
2016-11-19T10:42:50.407Z,36.2
2016-11-19T10:47:55.169Z,36.1
2016-11-19T10:52:59.597Z,36.1
2016-11-19T10:58:04.031Z,35.9
2016-11-19T11:03:08.135Z,35.7
2016-11-19T11:08:12.241Z,35.5
2016-11-19T11:13:17.005Z,35.5
2016-11-19T11:18:21.435Z,35.5
2016-11-19T11:23:25.878Z,35.4
2016-11-19T11:28:30.432Z,35.5
2016-11-19T11:33:34.535Z,35.6
2016-11-19T11:38:38.965Z,35.6
2016-11-19T11:43:43.079Z,35.6
2016-11-19T11:48:47.520Z,35.8
2016-11-19T11:53:51.948Z,36
2016-11-19T11:58:56.380Z,36
2016-11-19T12:04:00.683Z,36.1
2016-11-19T12:09:05.451Z,36.1
2016-11-19T12:14:09.877Z,36.2
2016-11-19T12:19:14.307Z,36.3
2016-11-19T12:24:19.079Z,36.1
2016-11-19T12:29:23.890Z,36.1
2016-11-19T12:34:28.621Z,36
2016-11-19T12:39:32.736Z,35.9
2016-11-19T12:44:37.174Z,35.9
2016-11-19T12:49:41.264Z,36
2016-11-19T12:54:45.355Z,36
2016-11-19T12:59:49.790Z,36
2016-11-19T13:04:54.213Z,36
2016-11-19T13:09:58.314Z,36.1
2016-11-19T13:15:02.406Z,36.1
2016-11-19T13:20:06.495Z,36.2
2016-11-19T13:25:10.922Z,36.2
2016-11-19T13:30:15.013Z,36.2
2016-11-19T13:35:19.791Z,36.3
2016-11-19T13:40:24.221Z,36.3
2016-11-19T13:45:28.653Z,36.2
2016-11-19T13:50:32.744Z,36.5
2016-11-19T13:55:37.540Z,36.7
2016-11-19T14:00:42.640Z,36.6
2016-11-19T14:05:46.744Z,36.5
2016-11-19T14:10:51.171Z,36.6
2016-11-19T14:15:55.280Z,36.5
2016-11-19T14:20:59.707Z,36.5
2016-11-19T14:26:03.802Z,36.5
2016-11-19T14:31:07.895Z,36.5
2016-11-19T14:36:12.003Z,36.6
2016-11-19T14:41:16.768Z,36.6
2016-11-19T14:46:21.192Z,36.6
2016-11-19T14:51:25.288Z,36.7
2016-11-19T14:56:29.717Z,36.7
2016-11-19T15:01:33.805Z,36.6
2016-11-19T15:06:37.895Z,36.7
2016-11-19T15:11:42.348Z,36.8
2016-11-19T15:16:47.123Z,36.8
2016-11-19T15:21:51.206Z,36.9
2016-11-19T15:26:55.301Z,36.9
2016-11-19T15:31:59.732Z,36.9
2016-11-19T15:37:03.822Z,36.8
2016-11-19T15:42:07.910Z,36.8
2016-11-19T15:47:12.000Z,36.8
2016-11-19T15:52:16.086Z,36.8
2016-11-19T15:57:20.183Z,36.8
2016-11-19T16:02:24.279Z,36.7
2016-11-19T16:07:28.704Z,36.7
2016-11-19T16:12:33.137Z,36.7
2016-11-19T16:17:37.235Z,36.7
2016-11-19T16:22:42.000Z,36.7
2016-11-19T16:27:46.434Z,36.7
2016-11-19T16:32:50.859Z,36.8
2016-11-19T16:37:55.619Z,36.8
2016-11-19T16:43:00.383Z,36.8
2016-11-19T16:48:04.814Z,36.8
2016-11-19T16:53:08.899Z,36.8
2016-11-19T16:58:13.027Z,36.8
2016-11-19T17:03:17.129Z,36.8
2016-11-19T17:08:21.227Z,36.7
2016-11-19T17:13:25.325Z,36.6
2016-11-19T17:18:29.418Z,36.5
2016-11-19T17:23:33.511Z,36.5
2016-11-19T17:28:37.927Z,36.5
2016-11-19T17:33:42.355Z,36.5
2016-11-19T17:38:46.446Z,36.5
2016-11-19T17:43:50.538Z,36.5
2016-11-19T17:48:54.636Z,36.5
2016-11-19T17:53:58.738Z,36.6
2016-11-19T17:59:02.828Z,36.5
2016-11-19T18:04:06.932Z,36.6
2016-11-19T18:09:11.024Z,36.9
2016-11-19T18:14:15.112Z,37.2
2016-11-19T18:19:19.560Z,37.2
2016-11-19T18:24:23.667Z,37.2
2016-11-19T18:29:28.439Z,37.2
2016-11-19T18:34:32.871Z,37.1
2016-11-19T18:39:37.296Z,37.1
2016-11-19T18:44:41.719Z,37
2016-11-19T18:49:46.157Z,37
2016-11-19T18:54:50.918Z,36.9
2016-11-19T18:59:55.011Z,36.9
2016-11-19T19:04:59.099Z,36.9
2016-11-19T19:10:03.184Z,36.9
2016-11-19T19:15:07.615Z,36.9
2016-11-19T19:20:11.703Z,36.8
2016-11-19T19:25:15.799Z,36.7
2016-11-19T19:30:20.219Z,36.7
2016-11-19T19:35:24.646Z,36.6
2016-11-19T19:40:28.733Z,36.6
2016-11-19T19:45:32.820Z,36.5
2016-11-19T19:50:36.917Z,36.5
2016-11-19T19:55:41.342Z,36.5
2016-11-19T20:00:45.763Z,36.5
2016-11-19T20:05:49.850Z,36.4
2016-11-19T20:10:54.279Z,36.4
2016-11-19T20:15:58.699Z,36.4
2016-11-19T20:21:02.798Z,36.5
2016-11-19T20:26:07.222Z,36.5
2016-11-19T20:31:11.984Z,36.5
2016-11-19T20:36:16.825Z,36.4
2016-11-19T20:41:20.163Z,36.3
2016-11-19T20:46:24.929Z,36.2
2016-11-19T20:51:29.356Z,36.2
2016-11-19T20:56:33.447Z,36.2
2016-11-19T21:01:37.538Z,36.2
2016-11-19T21:06:41.638Z,36.1
2016-11-19T21:11:45.729Z,36.2
2016-11-19T21:16:49.817Z,36.2
2016-11-19T21:21:54.250Z,36.1
2016-11-19T21:26:58.347Z,36.1
2016-11-19T21:32:03.105Z,36.2
2016-11-19T21:37:08.131Z,36.2
2016-11-19T21:42:12.553Z,36.3
2016-11-19T21:47:16.979Z,36.2
2016-11-19T21:52:21.076Z,36.2
2016-11-19T21:57:25.496Z,36.2
2016-11-19T22:02:29.581Z,36.2
2016-11-19T22:07:33.668Z,36.1
2016-11-19T22:12:38.090Z,36.1
2016-11-19T22:17:42.300Z,36.2
2016-11-19T22:22:46.949Z,36.1
2016-11-19T22:27:51.369Z,36.1
2016-11-19T22:32:55.458Z,36.2
2016-11-19T22:37:59.876Z,36.2
2016-11-19T22:43:04.637Z,36.2
2016-11-19T22:48:08.730Z,36.2
2016-11-19T22:53:12.819Z,36.2
2016-11-19T22:58:16.904Z,36.2
2016-11-19T23:03:21.000Z,36.2
2016-11-19T23:08:25.432Z,36.1
2016-11-19T23:13:29.515Z,36.2
2016-11-19T23:18:33.602Z,36.2
2016-11-19T23:23:37.685Z,36.2
2016-11-19T23:28:41.772Z,36.2
2016-11-19T23:33:45.863Z,36.1
2016-11-19T23:38:49.949Z,36.1
2016-11-19T23:43:54.033Z,36.2
2016-11-19T23:48:58.463Z,36.1
2016-11-19T23:54:02.552Z,36.1
2016-11-19T23:59:07.306Z,36.1
